Time;durP1;ratioP1;P1;durP2;ratioP2;P2;SDS_P1;SDS_P2;PMS_P1;PMS_P2;Temp;Humidity;BMP_temperature;BMP_pressure;BME280_temperature;BME280_humidity;BME280_pressure;Samples;Min_cycle;Max_cycle;Signal;HPM_P1;HPM_P2
2021/03/31 00:03:32;;;;;;;12.20;6.07;;;;;;;;;;10559542;27;20226;-69
2021/03/31 00:08:34;;;;;;;14.33;5.90;;;;;;;;;;10577243;27;20218;-71
2021/03/31 00:13:37;;;;;;;10.60;5.60;;;;;;;;;;10554441;27;20223;-70
2021/03/31 00:18:40;;;;;;;16.20;6.63;;;;;;;;;;10553348;27;20281;-70
2021/03/31 00:23:41;;;;;;;11.10;5.83;;;;;;;;;;10546691;28;20260;-70
2021/03/31 00:28:44;;;;;;;12.67;6.00;;;;;;;;;;10555779;28;20202;-69
2021/03/31 00:33:48;;;;;;;12.47;6.20;;;;;;;;;;10570925;28;20289;-69
2021/03/31 00:38:50;;;;;;;11.73;5.77;;;;;;;;;;10570179;28;20231;-69
2021/03/31 00:43:52;;;;;;;11.77;5.97;;;;;;;;;;10564971;28;20607;-70
2021/03/31 00:48:54;;;;;;;10.80;5.70;;;;;;;;;;10570221;28;20230;-69
2021/03/31 00:53:56;;;;;;;10.57;4.97;;;;;;;;;;10571003;28;20604;-70
2021/03/31 00:58:58;;;;;;;11.17;5.50;;;;;;;;;;10567897;28;20198;-73
2021/03/31 01:04:00;;;;;;;11.43;5.07;;;;;;;;;;10555718;28;20297;-70
2021/03/31 01:09:05;;;;;;;11.83;5.33;;;;;;;;;;10564913;28;20207;-69
2021/03/31 01:14:13;;;;;;;11.40;5.50;;;;;;;;;;10552032;28;20262;-70
2021/03/31 01:19:28;;;;;;;10.70;5.30;;;;;;;;;;10578679;28;20239;-70
2021/03/31 01:24:48;;;;;;;10.30;5.33;;;;;;;;;;10571374;28;20266;-70
2021/03/31 01:29:54;;;;;;;11.63;5.40;;;;;;;;;;10567506;28;20214;-71
2021/03/31 01:34:57;;;;;;;11.37;4.97;;;;;;;;;;10571469;27;20214;-72
2021/03/31 01:40:04;;;;;;;10.13;4.93;;;;;;;;;;10574735;27;20184;-71
2021/03/31 01:45:07;;;;;;;10.40;4.93;;;;;;;;;;10578518;27;20230;-70
2021/03/31 01:50:10;;;;;;;9.90;4.50;;;;;;;;;;10575852;27;20198;-69
2021/03/31 01:55:15;;;;;;;9.17;4.87;;;;;;;;;;10582108;27;20215;-70
2021/03/31 02:00:19;;;;;;;11.80;4.90;;;;;;;;;;10577912;27;20685;-70
2021/03/31 02:05:22;;;;;;;11.60;4.63;;;;;;;;;;10559158;27;20649;-70
2021/03/31 02:10:24;;;;;;;11.13;4.90;;;;;;;;;;10573980;27;20238;-70
2021/03/31 02:15:28;;;;;;;9.60;4.87;;;;;;;;;;10574741;27;20253;-69
2021/03/31 02:20:31;;;;;;;11.13;4.97;;;;;;;;;;10584820;27;20255;-71
2021/03/31 02:25:33;;;;;;;11.77;5.30;;;;;;;;;;10559318;27;20215;-70
2021/03/31 02:30:34;;;;;;;11.57;5.20;;;;;;;;;;10576807;27;20244;-71
2021/03/31 02:35:41;;;;;;;10.23;4.40;;;;;;;;;;10570162;27;20238;-71
2021/03/31 02:40:44;;;;;;;8.30;4.23;;;;;;;;;;10576032;27;20233;-70
2021/03/31 02:45:47;;;;;;;11.03;4.77;;;;;;;;;;10590514;27;20682;-68
2021/03/31 02:50:55;;;;;;;10.73;4.57;;;;;;;;;;10562598;27;20210;-70
2021/03/31 02:55:57;;;;;;;9.47;4.23;;;;;;;;;;10574753;27;20264;-69
2021/03/31 03:00:59;;;;;;;11.17;4.77;;;;;;;;;;10551670;27;20715;-69
2021/03/31 03:06:03;;;;;;;10.63;4.47;;;;;;;;;;10577862;27;20598;-70
2021/03/31 03:11:05;;;;;;;9.77;4.33;;;;;;;;;;10581323;27;20314;-70
2021/03/31 03:16:07;;;;;;;10.03;4.40;;;;;;;;;;10572641;27;20218;-70
2021/03/31 03:21:10;;;;;;;10.00;3.60;;;;;;;;;;10579697;27;20224;-69
2021/03/31 03:26:12;;;;;;;15.10;4.57;;;;;;;;;;10554335;27;20572;-71
2021/03/31 03:31:14;;;;;;;7.53;3.63;;;;;;;;;;10577880;27;20243;-70
2021/03/31 03:36:17;;;;;;;8.73;3.20;;;;;;;;;;10589603;27;20250;-70
2021/03/31 03:41:18;;;;;;;9.20;3.20;;;;;;;;;;10577288;27;20674;-69
2021/03/31 03:46:21;;;;;;;11.20;3.77;;;;;;;;;;10565403;27;20567;-71
2021/03/31 03:51:23;;;;;;;10.70;3.67;;;;;;;;;;10556524;27;20708;-71
2021/03/31 03:56:25;;;;;;;10.07;4.57;;;;;;;;;;10576720;27;20215;-70
2021/03/31 04:01:27;;;;;;;9.63;3.20;;;;;;;;;;10566794;27;20183;-70
2021/03/31 04:06:29;;;;;;;7.40;2.83;;;;;;;;;;10571752;27;20301;-70
2021/03/31 04:11:31;;;;;;;8.60;3.40;;;;;;;;;;10564731;27;20716;-70
2021/03/31 04:16:34;;;;;;;6.97;2.90;;;;;;;;;;10566727;28;20218;-70
2021/03/31 04:21:36;;;;;;;7.67;2.97;;;;;;;;;;10579747;27;20187;-70
2021/03/31 04:26:39;;;;;;;6.77;2.70;;;;;;;;;;10570066;28;20214;-70
2021/03/31 04:31:41;;;;;;;9.23;3.00;;;;;;;;;;10557548;28;20242;-70
2021/03/31 04:36:45;;;;;;;6.40;2.53;;;;;;;;;;10559266;28;20233;-69
2021/03/31 04:41:46;;;;;;;7.40;2.50;;;;;;;;;;10553886;28;20608;-70
2021/03/31 04:46:50;;;;;;;9.27;2.80;;;;;;;;;;10570914;28;20301;-70
2021/03/31 04:51:52;;;;;;;10.33;3.27;;;;;;;;;;10553651;28;20536;-71
2021/03/31 04:56:54;;;;;;;16.03;3.87;;;;;;;;;;10573594;28;20292;-70
2021/03/31 05:01:56;;;;;;;14.63;3.13;;;;;;;;;;10567350;28;20294;-69
2021/03/31 05:06:58;;;;;;;7.90;2.60;;;;;;;;;;10558962;28;20206;-71
2021/03/31 05:12:00;;;;;;;11.67;2.70;;;;;;;;;;10571084;27;20254;-70
2021/03/31 05:17:04;;;;;;;11.93;3.20;;;;;;;;;;10553297;27;20586;-69
2021/03/31 05:22:07;;;;;;;9.20;2.70;;;;;;;;;;10580648;27;20302;-71
2021/03/31 05:27:08;;;;;;;8.17;2.80;;;;;;;;;;10578532;27;20264;-71
2021/03/31 05:32:10;;;;;;;8.10;2.90;;;;;;;;;;10579459;27;20573;-70
2021/03/31 05:37:12;;;;;;;10.30;3.50;;;;;;;;;;10553059;27;20215;-69
2021/03/31 05:42:16;;;;;;;7.57;2.67;;;;;;;;;;10558108;27;20350;-70
2021/03/31 05:47:23;;;;;;;7.93;2.83;;;;;;;;;;10557238;27;20219;-71
2021/03/31 05:52:25;;;;;;;12.13;3.03;;;;;;;;;;10565556;27;20191;-70
2021/03/31 05:57:29;;;;;;;6.93;2.60;;;;;;;;;;10548633;27;20199;-70
2021/03/31 06:02:31;;;;;;;5.87;2.53;;;;;;;;;;10565471;27;20657;-70
2021/03/31 06:07:33;;;;;;;8.20;2.60;;;;;;;;;;10569063;27;20210;-70
2021/03/31 06:12:36;;;;;;;7.50;2.53;;;;;;;;;;10566242;27;20266;-70
2021/03/31 06:17:45;;;;;;;8.70;2.80;;;;;;;;;;10570806;27;20264;-70
2021/03/31 06:23:06;;;;;;;7.50;2.50;;;;;;;;;;10569682;27;20302;-69
2021/03/31 06:28:08;;;;;;;8.87;2.53;;;;;;;;;;10567218;27;20631;-69
2021/03/31 06:33:09;;;;;;;10.93;2.77;;;;;;;;;;10570138;27;20207;-71
2021/03/31 06:38:15;;;;;;;10.50;2.50;;;;;;;;;;10570442;27;20205;-69
2021/03/31 06:43:19;;;;;;;7.30;2.43;;;;;;;;;;10569051;27;20275;-70
2021/03/31 06:48:22;;;;;;;7.27;2.70;;;;;;;;;;10569292;27;20217;-69
2021/03/31 06:53:28;;;;;;;10.50;2.70;;;;;;;;;;10572824;27;20371;-68
2021/03/31 06:58:30;;;;;;;8.27;2.60;;;;;;;;;;10573904;27;20706;-68
2021/03/31 07:03:32;;;;;;;8.10;2.80;;;;;;;;;;10573801;27;20222;-69
2021/03/31 07:08:36;;;;;;;8.53;2.63;;;;;;;;;;10559310;27;20191;-70
2021/03/31 07:13:38;;;;;;;6.95;2.60;;;;;;;;;;10557665;27;20231;-68
2021/03/31 07:18:41;;;;;;;9.27;2.70;;;;;;;;;;10572403;27;20572;-71
2021/03/31 07:23:47;;;;;;;8.18;2.72;;;;;;;;;;10560379;27;20263;-70
2021/03/31 07:28:51;;;;;;;8.10;3.10;;;;;;;;;;10557236;27;20240;-70
2021/03/31 07:34:11;;;;;;;8.52;3.03;;;;;;;;;;10568194;27;20223;-70
2021/03/31 07:39:15;;;;;;;9.25;2.88;;;;;;;;;;10553249;27;20744;-71
2021/03/31 07:44:19;;;;;;;8.77;3.60;;;;;;;;;;10565685;27;20221;-69
2021/03/31 07:49:28;;;;;;;7.90;3.70;;;;;;;;;;10566273;27;20198;-70
2021/03/31 07:54:32;;;;;;;11.30;3.58;;;;;;;;;;10556520;27;20575;-71
2021/03/31 07:59:39;;;;;;;10.15;4.03;;;;;;;;;;10549655;28;20200;-71
2021/03/31 08:04:41;;;;;;;12.50;3.97;;;;;;;;;;10535642;28;20280;-71
2021/03/31 08:09:43;;;;;;;9.30;4.60;;;;;;;;;;10553204;28;20332;-71
2021/03/31 08:14:46;;;;;;;11.68;4.50;;;;;;;;;;10561831;28;20221;-71
2021/03/31 08:20:08;;;;;;;11.30;4.30;;;;;;;;;;10564114;28;20207;-71
2021/03/31 08:25:14;;;;;;;9.07;4.32;;;;;;;;;;10553939;28;20264;-70
2021/03/31 08:30:19;;;;;;;12.60;4.70;;;;;;;;;;10566927;27;20279;-71
2021/03/31 08:35:21;;;;;;;7.85;3.75;;;;;;;;;;10568161;28;20226;-72
2021/03/31 08:40:27;;;;;;;7.90;4.13;;;;;;;;;;10565776;28;20264;-72
2021/03/31 08:45:39;;;;;;;8.95;4.32;;;;;;;;;;10576257;27;20297;-70
2021/03/31 08:50:43;;;;;;;9.18;3.95;;;;;;;;;;10583456;27;20873;-72
2021/03/31 08:55:47;;;;;;;10.65;4.03;;;;;;;;;;10552811;27;20302;-71
2021/03/31 09:00:52;;;;;;;7.03;3.40;;;;;;;;;;10568860;27;20334;-71
2021/03/31 09:05:54;;;;;;;7.85;3.60;;;;;;;;;;10578218;27;20210;-71
2021/03/31 09:10:58;;;;;;;7.57;3.63;;;;;;;;;;10552947;27;20253;-71
2021/03/31 09:16:03;;;;;;;7.90;3.40;;;;;;;;;;10549921;28;20691;-71
2021/03/31 09:21:05;;;;;;;11.90;4.10;;;;;;;;;;10575446;27;20191;-72
2021/03/31 09:26:08;;;;;;;5.80;3.30;;;;;;;;;;10580627;27;20207;-72
2021/03/31 09:31:12;;;;;;;9.35;3.60;;;;;;;;;;10580742;27;20237;-72
2021/03/31 09:36:18;;;;;;;9.02;3.60;;;;;;;;;;10578455;27;20230;-72
2021/03/31 09:41:25;;;;;;;6.90;3.30;;;;;;;;;;10566005;27;20187;-73
2021/03/31 09:46:27;;;;;;;10.10;3.40;;;;;;;;;;10578192;27;20228;-71
2021/03/31 09:51:35;;;;;;;9.25;3.95;;;;;;;;;;10582395;27;20248;-72
2021/03/31 09:56:41;;;;;;;8.50;4.05;;;;;;;;;;10567639;27;20225;-72
2021/03/31 10:01:43;;;;;;;9.82;4.25;;;;;;;;;;10560525;27;20611;-72
2021/03/31 10:06:44;;;;;;;8.70;3.97;;;;;;;;;;10576841;27;20214;-73
2021/03/31 10:11:54;;;;;;;9.73;3.83;;;;;;;;;;10574659;27;20202;-72
2021/03/31 10:16:56;;;;;;;10.40;4.88;;;;;;;;;;10585019;27;20218;-72
2021/03/31 10:22:04;;;;;;;9.93;4.82;;;;;;;;;;10578142;27;20189;-72
2021/03/31 10:27:40;;;;;;;8.93;4.25;;;;;;;;;;10569166;27;20186;-71
2021/03/31 10:32:59;;;;;;;8.82;4.40;;;;;;;;;;10573981;27;20233;-72
2021/03/31 10:38:06;;;;;;;9.05;4.60;;;;;;;;;;10568492;27;20202;-72
2021/03/31 10:49:06;;;;;;;8.98;4.78;;;;;;;;;;10564961;27;20214;-70
2021/03/31 10:54:11;;;;;;;9.13;4.82;;;;;;;;;;10566613;27;20264;-72
2021/03/31 10:59:14;;;;;;;9.95;5.20;;;;;;;;;;10576751;27;20183;-72
2021/03/31 11:04:15;;;;;;;9.32;5.07;;;;;;;;;;10591013;27;20640;-70
2021/03/31 11:09:20;;;;;;;11.82;6.25;;;;;;;;;;10575964;27;20285;-70
2021/03/31 11:14:23;;;;;;;11.88;5.18;;;;;;;;;;10569458;27;20270;-72
2021/03/31 11:19:44;;;;;;;9.10;5.32;;;;;;;;;;10564149;27;20198;-71
2021/03/31 11:30:09;;;;;;;9.18;5.55;;;;;;;;;;10579334;27;20293;-72
2021/03/31 11:35:11;;;;;;;9.20;5.03;;;;;;;;;;10554689;27;20238;-72
2021/03/31 11:40:13;;;;;;;8.60;4.75;;;;;;;;;;10575784;27;20189;-71
2021/03/31 11:45:16;;;;;;;9.30;4.72;;;;;;;;;;10571468;27;20245;-72
2021/03/31 11:50:17;;;;;;;11.48;5.70;;;;;;;;;;10570961;27;20211;-72
2021/03/31 11:55:19;;;;;;;10.48;5.53;;;;;;;;;;10560971;27;20297;-72
2021/03/31 12:00:22;;;;;;;8.98;5.20;;;;;;;;;;10559208;27;20264;-73
2021/03/31 12:05:24;;;;;;;9.98;5.65;;;;;;;;;;10577593;27;20301;-71
2021/03/31 12:10:25;;;;;;;14.27;6.43;;;;;;;;;;10576876;27;20306;-73
2021/03/31 12:15:28;;;;;;;11.02;5.88;;;;;;;;;;10573535;27;20206;-72
2021/03/31 12:20:30;;;;;;;9.68;6.05;;;;;;;;;;10574403;27;20274;-73
2021/03/31 12:25:32;;;;;;;14.27;6.47;;;;;;;;;;10544068;27;20222;-72
2021/03/31 12:30:35;;;;;;;8.93;6.50;;;;;;;;;;10570131;27;20214;-71
2021/03/31 12:35:36;;;;;;;10.57;6.75;;;;;;;;;;10564728;28;20294;-72
2021/03/31 12:40:38;;;;;;;12.00;7.30;;;;;;;;;;10575688;28;20187;-73
2021/03/31 12:45:40;;;;;;;15.52;7.65;;;;;;;;;;10552352;28;20264;-71
2021/03/31 12:50:43;;;;;;;12.90;7.75;;;;;;;;;;10571092;28;20211;-72
2021/03/31 12:55:45;;;;;;;13.77;7.60;;;;;;;;;;10563748;28;20249;-72
2021/03/31 13:00:50;;;;;;;12.18;8.05;;;;;;;;;;10539643;28;20192;-71
2021/03/31 13:06:12;;;;;;;11.23;7.88;;;;;;;;;;10559349;28;20283;-72
2021/03/31 13:11:34;;;;;;;12.57;7.80;;;;;;;;;;10560058;28;20213;-71
2021/03/31 13:16:42;;;;;;;12.50;8.27;;;;;;;;;;10569400;28;20207;-72
2021/03/31 13:27:16;;;;;;;14.32;8.88;;;;;;;;;;10558441;28;20317;-71
2021/03/31 13:32:22;;;;;;;16.13;9.60;;;;;;;;;;10575328;27;20202;-72
2021/03/31 13:37:27;;;;;;;15.00;9.00;;;;;;;;;;10575561;27;20195;-72
2021/03/31 13:42:28;;;;;;;16.60;9.32;;;;;;;;;;10575432;27;20222;-70
2021/03/31 13:47:36;;;;;;;16.15;8.68;;;;;;;;;;10579561;27;20191;-72
2021/03/31 13:53:00;;;;;;;12.52;8.63;;;;;;;;;;10581622;27;20219;-71
2021/03/31 13:58:06;;;;;;;14.98;9.85;;;;;;;;;;10579580;27;20191;-71
2021/03/31 14:03:09;;;;;;;13.52;9.25;;;;;;;;;;10570651;27;20211;-70
2021/03/31 14:08:10;;;;;;;14.05;9.05;;;;;;;;;;10559574;27;20629;-72
2021/03/31 14:13:33;;;;;;;16.55;9.90;;;;;;;;;;10551699;27;20317;-72
2021/03/31 14:18:37;;;;;;;16.23;9.32;;;;;;;;;;10576873;27;20604;-71
2021/03/31 14:23:39;;;;;;;16.85;8.90;;;;;;;;;;10573149;27;20237;-72
2021/03/31 14:28:41;;;;;;;13.30;9.20;;;;;;;;;;10568688;27;20270;-72
2021/03/31 14:33:47;;;;;;;15.60;9.27;;;;;;;;;;10561599;27;20222;-71
2021/03/31 14:39:12;;;;;;;15.57;9.63;;;;;;;;;;10552553;27;20213;-72
2021/03/31 14:44:33;;;;;;;17.45;9.63;;;;;;;;;;10575666;27;20597;-72
2021/03/31 14:49:56;;;;;;;18.52;8.70;;;;;;;;;;10547806;27;20225;-73
2021/03/31 14:55:19;;;;;;;15.80;9.45;;;;;;;;;;10565654;27;20708;-72
2021/03/31 15:00:41;;;;;;;18.00;9.02;;;;;;;;;;10568746;28;20195;-72
2021/03/31 15:05:44;;;;;;;15.27;9.32;;;;;;;;;;10570945;28;20283;-73
2021/03/31 15:10:45;;;;;;;17.83;8.85;;;;;;;;;;10548849;28;20302;-73
2021/03/31 15:16:07;;;;;;;15.35;8.77;;;;;;;;;;10557501;28;20215;-72
2021/03/31 15:21:17;;;;;;;14.07;8.57;;;;;;;;;;10565288;28;20191;-72
2021/03/31 15:26:38;;;;;;;13.63;8.02;;;;;;;;;;10570018;28;20211;-73
2021/03/31 15:32:00;;;;;;;17.23;8.77;;;;;;;;;;10570321;28;20299;-73
2021/03/31 15:37:10;;;;;;;15.10;9.23;;;;;;;;;;10563056;28;20253;-74
2021/03/31 15:42:16;;;;;;;17.13;8.75;;;;;;;;;;10551945;28;20274;-73
2021/03/31 15:47:27;;;;;;;16.27;8.88;;;;;;;;;;10569181;28;20222;-72
2021/03/31 15:52:34;;;;;;;14.88;9.15;;;;;;;;;;10550961;28;20207;-74
2021/03/31 15:57:38;;;;;;;17.80;8.13;;;;;;;;;;10550881;28;20223;-74
2021/03/31 16:02:40;;;;;;;18.17;8.93;;;;;;;;;;10551233;28;20194;-74
2021/03/31 16:07:48;;;;;;;16.92;8.60;;;;;;;;;;10585107;28;20236;-73
2021/03/31 16:12:50;;;;;;;17.73;8.77;;;;;;;;;;10592238;28;20244;-72
2021/03/31 16:17:56;;;;;;;16.45;8.65;;;;;;;;;;10568952;28;20266;-74
2021/03/31 16:22:59;;;;;;;16.42;8.60;;;;;;;;;;10570433;28;20252;-73
2021/03/31 16:28:25;;;;;;;17.73;9.00;;;;;;;;;;10568080;28;20290;-72
2021/03/31 16:33:32;;;;;;;16.65;8.88;;;;;;;;;;10566801;28;20218;-72
2021/03/31 16:38:39;;;;;;;14.98;8.52;;;;;;;;;;10546661;28;20210;-74
2021/03/31 16:43:46;;;;;;;21.85;8.70;;;;;;;;;;10563488;28;20660;-75
2021/03/31 16:48:53;;;;;;;13.23;7.70;;;;;;;;;;10556651;28;20252;-74
2021/03/31 16:54:03;;;;;;;17.58;8.25;;;;;;;;;;10543788;28;20214;-72
2021/03/31 16:59:10;;;;;;;14.93;7.97;;;;;;;;;;10555676;28;20187;-74
2021/03/31 17:04:16;;;;;;;16.15;7.75;;;;;;;;;;10561901;28;20238;-72
2021/03/31 17:09:24;;;;;;;17.67;8.03;;;;;;;;;;10568726;27;20502;-72
2021/03/31 17:14:30;;;;;;;16.73;7.07;;;;;;;;;;10581700;27;20752;-74
2021/03/31 17:19:32;;;;;;;17.67;7.23;;;;;;;;;;10559294;27;20203;-72
2021/03/31 17:24:39;;;;;;;15.03;7.17;;;;;;;;;;10574715;28;20441;-73
2021/03/31 17:29:46;;;;;;;16.80;7.07;;;;;;;;;;10552633;28;20210;-72
2021/03/31 17:34:52;;;;;;;15.40;7.20;;;;;;;;;;10571046;28;20230;-73
2021/03/31 17:40:00;;;;;;;19.53;7.07;;;;;;;;;;10572018;28;20609;-70
2021/03/31 17:45:10;;;;;;;14.13;6.70;;;;;;;;;;10571922;28;20258;-74
2021/03/31 17:50:19;;;;;;;14.40;6.97;;;;;;;;;;10566894;28;20233;-71
2021/03/31 17:55:27;;;;;;;14.10;7.23;;;;;;;;;;10553854;28;20293;-72
2021/03/31 18:00:33;;;;;;;16.10;6.67;;;;;;;;;;10567877;28;20203;-73
2021/03/31 18:05:35;;;;;;;13.93;7.20;;;;;;;;;;10571557;27;20757;-71
2021/03/31 18:10:44;;;;;;;18.63;7.57;;;;;;;;;;10573392;28;20710;-71
2021/03/31 18:15:50;;;;;;;15.40;7.47;;;;;;;;;;10547602;28;20218;-72
2021/03/31 18:20:52;;;;;;;16.50;8.03;;;;;;;;;;10573475;27;20183;-72
2021/03/31 18:25:59;;;;;;;23.03;8.17;;;;;;;;;;10567470;27;20722;-72
2021/03/31 18:31:06;;;;;;;17.77;7.70;;;;;;;;;;10574119;28;20273;-73
2021/03/31 18:36:12;;;;;;;21.17;8.07;;;;;;;;;;10550136;28;20215;-70
2021/03/31 18:41:25;;;;;;;19.67;8.97;;;;;;;;;;10554618;28;20232;-72
2021/03/31 18:46:26;;;;;;;16.60;8.53;;;;;;;;;;10549972;28;20316;-71
2021/03/31 18:51:33;;;;;;;20.13;8.80;;;;;;;;;;10570311;28;20219;-69
2021/03/31 18:56:35;;;;;;;17.87;9.37;;;;;;;;;;10569338;28;20221;-71
2021/03/31 19:01:41;;;;;;;19.63;8.47;;;;;;;;;;10550103;28;20566;-72
2021/03/31 19:06:48;;;;;;;19.83;9.10;;;;;;;;;;10562514;27;20251;-71
2021/03/31 19:11:56;;;;;;;19.43;9.20;;;;;;;;;;10573199;28;20263;-70
2021/03/31 19:17:04;;;;;;;17.87;9.43;;;;;;;;;;10567737;28;20223;-70
2021/03/31 19:22:10;;;;;;;19.53;9.23;;;;;;;;;;10572533;28;20645;-70
2021/03/31 19:27:18;;;;;;;25.70;14.37;;;;;;;;;;10568056;28;20287;-71
2021/03/31 19:32:25;;;;;;;18.37;9.53;;;;;;;;;;10552600;28;20210;-71
2021/03/31 19:37:31;;;;;;;19.67;9.77;;;;;;;;;;10551996;28;20218;-71
2021/03/31 19:42:39;;;;;;;21.20;10.47;;;;;;;;;;10557905;27;20209;-69
2021/03/31 19:47:46;;;;;;;18.43;9.77;;;;;;;;;;10567129;28;20232;-70
2021/03/31 19:52:53;;;;;;;21.43;10.67;;;;;;;;;;10551086;28;20280;-73
2021/03/31 19:57:56;;;;;;;22.97;10.53;;;;;;;;;;10569774;28;20282;-70
2021/03/31 20:03:04;;;;;;;20.40;10.50;;;;;;;;;;10570541;28;20211;-71
2021/03/31 20:08:11;;;;;;;20.60;11.17;;;;;;;;;;10568060;28;20187;-72
2021/03/31 20:13:18;;;;;;;21.17;11.60;;;;;;;;;;10571071;28;20290;-70
2021/03/31 20:18:25;;;;;;;22.80;10.70;;;;;;;;;;10570376;28;20215;-69
2021/03/31 20:23:32;;;;;;;22.07;10.73;;;;;;;;;;10572851;28;20219;-72
2021/03/31 20:28:39;;;;;;;22.83;10.33;;;;;;;;;;10599069;28;20319;-69
2021/03/31 20:33:56;;;;;;;22.90;10.80;;;;;;;;;;10563717;28;20231;-70
2021/03/31 20:39:04;;;;;;;21.80;10.37;;;;;;;;;;10606048;28;20283;-70
2021/03/31 20:44:07;;;;;;;20.50;10.40;;;;;;;;;;10596304;28;20289;-70
2021/03/31 20:49:13;;;;;;;23.47;10.40;;;;;;;;;;10610985;28;20195;-72
2021/03/31 20:54:20;;;;;;;19.00;9.77;;;;;;;;;;10556841;28;20235;-70
2021/03/31 20:59:27;;;;;;;21.50;9.70;;;;;;;;;;10524767;28;20218;-70
2021/03/31 21:04:36;;;;;;;20.03;9.90;;;;;;;;;;10562184;28;20210;-69
2021/03/31 21:09:42;;;;;;;23.23;11.25;;;;;;;;;;10562463;28;20439;-72
2021/03/31 21:14:50;;;;;;;18.02;10.57;;;;;;;;;;10557189;28;20641;-71
2021/03/31 21:19:51;;;;;;;19.20;10.63;;;;;;;;;;10565231;28;20203;-71
2021/03/31 21:24:58;;;;;;;20.73;10.40;;;;;;;;;;10572162;28;20231;-72
2021/03/31 21:30:07;;;;;;;21.37;10.40;;;;;;;;;;10551459;28;20211;-70
2021/03/31 21:35:13;;;;;;;18.10;8.73;;;;;;;;;;10564903;28;20675;-71
2021/03/31 21:40:15;;;;;;;19.77;8.80;;;;;;;;;;10567581;28;20604;-71
2021/03/31 21:45:22;;;;;;;18.63;8.50;;;;;;;;;;10567016;28;20488;-70
2021/03/31 21:50:29;;;;;;;15.87;8.40;;;;;;;;;;10569218;28;20203;-68
2021/03/31 21:55:30;;;;;;;19.13;8.93;;;;;;;;;;10589104;27;20652;-71
2021/03/31 22:00:33;;;;;;;18.90;8.67;;;;;;;;;;10558163;27;20195;-70
2021/03/31 22:05:36;;;;;;;16.60;8.33;;;;;;;;;;10567380;27;20219;-70
2021/03/31 22:10:42;;;;;;;16.07;7.70;;;;;;;;;;10570585;28;20214;-70
2021/03/31 22:15:44;;;;;;;15.00;6.77;;;;;;;;;;10568044;27;20260;-70
2021/03/31 22:20:46;;;;;;;14.43;6.60;;;;;;;;;;10547676;28;20569;-71
2021/03/31 22:25:48;;;;;;;15.17;7.20;;;;;;;;;;10566797;27;20336;-72
2021/03/31 22:30:51;;;;;;;13.67;5.90;;;;;;;;;;10568555;27;20274;-70
2021/03/31 22:35:55;;;;;;;14.13;5.57;;;;;;;;;;10571478;27;20225;-71
2021/03/31 22:40:57;;;;;;;11.27;5.20;;;;;;;;;;10553039;27;20211;-71
2021/03/31 22:46:00;;;;;;;12.63;5.07;;;;;;;;;;10569074;27;20230;-71
2021/03/31 22:51:03;;;;;;;10.70;4.97;;;;;;;;;;10565878;27;20573;-70
2021/03/31 22:56:06;;;;;;;11.80;4.90;;;;;;;;;;10575102;27;20214;-71
2021/03/31 23:01:09;;;;;;;11.77;5.20;;;;;;;;;;10567994;27;20192;-69
2021/03/31 23:06:11;;;;;;;10.13;4.60;;;;;;;;;;10552934;27;20214;-68
2021/03/31 23:11:12;;;;;;;11.40;4.70;;;;;;;;;;10572639;27;20709;-70
2021/03/31 23:16:15;;;;;;;10.60;4.53;;;;;;;;;;10566684;27;20781;-72
2021/03/31 23:21:16;;;;;;;11.37;4.33;;;;;;;;;;10564918;27;20221;-70
2021/03/31 23:26:18;;;;;;;12.10;4.03;;;;;;;;;;10551835;27;20254;-71
2021/03/31 23:31:20;;;;;;;9.27;4.23;;;;;;;;;;10569629;27;20219;-71
2021/03/31 23:36:22;;;;;;;12.60;4.93;;;;;;;;;;10568618;27;20211;-69
2021/03/31 23:41:24;;;;;;;10.00;4.10;;;;;;;;;;10565579;27;20183;-69
2021/03/31 23:46:26;;;;;;;13.63;4.03;;;;;;;;;;10568306;27;20301;-70
2021/03/31 23:51:28;;;;;;;9.50;3.93;;;;;;;;;;10562308;28;20275;-70
2021/03/31 23:56:29;;;;;;;9.30;3.73;;;;;;;;;;10568849;27;20213;-70
